createdAt,value
2018-12-16T00:00:17.610Z,16.70
2018-12-16T00:02:45.632Z,16.70
2018-12-16T00:05:12.849Z,16.70
2018-12-16T00:07:40.055Z,16.70
2018-12-16T00:10:07.270Z,16.70
2018-12-16T00:12:34.479Z,16.60
2018-12-16T00:15:02.487Z,16.60
2018-12-16T00:17:29.719Z,16.60
2018-12-16T00:19:57.724Z,16.60
2018-12-16T00:22:29.833Z,16.60
2018-12-16T00:24:56.051Z,16.60
2018-12-16T00:27:23.268Z,16.60
2018-12-16T00:29:50.537Z,16.60
2018-12-16T00:32:17.905Z,16.60
2018-12-16T00:34:45.119Z,16.60
2018-12-16T00:37:13.197Z,16.60
2018-12-16T00:39:41.205Z,16.60
2018-12-16T00:42:08.463Z,16.60
2018-12-16T00:44:35.725Z,16.60
2018-12-16T00:47:03.934Z,16.60
2018-12-16T00:49:31.748Z,16.60
2018-12-16T00:51:58.969Z,16.50
2018-12-16T00:54:26.403Z,16.50
2018-12-16T00:56:53.616Z,16.50
2018-12-16T00:59:21.852Z,16.50
2018-12-16T01:01:49.067Z,16.60
2018-12-16T01:04:16.321Z,16.60
2018-12-16T01:06:44.339Z,16.70
2018-12-16T01:09:11.596Z,16.70
2018-12-16T01:11:39.738Z,16.70
2018-12-16T01:14:07.912Z,16.60
2018-12-16T01:16:35.133Z,16.60
2018-12-16T01:19:03.190Z,16.60
2018-12-16T01:21:31.377Z,16.60
2018-12-16T01:23:59.454Z,16.60
2018-12-16T01:26:26.780Z,16.60
2018-12-16T01:28:54.967Z,16.60
2018-12-16T01:31:22.191Z,16.60
2018-12-16T01:33:50.280Z,16.60
2018-12-16T01:36:17.508Z,16.60
2018-12-16T01:38:45.781Z,16.60
2018-12-16T01:41:13.937Z,16.60
2018-12-16T01:43:41.163Z,16.60
2018-12-16T01:46:08.660Z,16.60
2018-12-16T01:48:35.908Z,16.60
2018-12-16T01:51:03.151Z,16.60
2018-12-16T01:53:30.540Z,16.60
2018-12-16T01:55:57.790Z,16.60
2018-12-16T01:58:25.805Z,16.60
2018-12-16T02:00:53.046Z,16.50
2018-12-16T02:03:21.096Z,16.60
2018-12-16T02:05:48.393Z,16.60
2018-12-16T02:08:15.618Z,16.60
2018-12-16T02:10:42.837Z,16.60
2018-12-16T02:13:10.074Z,16.60
2018-12-16T02:15:37.400Z,16.50
2018-12-16T02:18:04.618Z,16.50
2018-12-16T02:20:33.531Z,16.50
2018-12-16T02:23:02.624Z,16.50
2018-12-16T02:25:31.364Z,16.50
2018-12-16T02:27:59.373Z,16.50
2018-12-16T02:30:28.913Z,16.50
2018-12-16T02:32:56.966Z,16.50
2018-12-16T02:35:24.196Z,16.50
2018-12-16T02:37:52.396Z,16.50
2018-12-16T02:40:19.614Z,16.50
2018-12-16T02:42:47.783Z,16.50
2018-12-16T02:45:15.001Z,16.50
2018-12-16T02:47:42.278Z,16.50
2018-12-16T02:50:10.420Z,16.50
2018-12-16T02:52:37.685Z,16.50
2018-12-16T02:55:05.709Z,16.50
2018-12-16T02:57:32.936Z,16.40
2018-12-16T03:00:02.174Z,16.50
2018-12-16T03:02:29.392Z,16.50
2018-12-16T03:04:57.452Z,16.60
2018-12-16T03:07:25.602Z,16.50
2018-12-16T03:09:52.826Z,16.60
2018-12-16T03:12:20.842Z,16.60
2018-12-16T03:14:48.058Z,16.60
2018-12-16T03:17:15.281Z,16.60
2018-12-16T03:19:43.475Z,16.60
2018-12-16T03:22:11.494Z,16.60
2018-12-16T03:24:39.633Z,16.60
2018-12-16T03:27:06.960Z,16.60
2018-12-16T03:29:35.152Z,16.60
2018-12-16T03:32:02.380Z,16.50
2018-12-16T03:34:31.269Z,16.50
2018-12-16T03:36:59.403Z,16.60
2018-12-16T03:39:27.619Z,16.50
2018-12-16T03:41:55.697Z,16.50
2018-12-16T03:44:22.966Z,16.50
2018-12-16T03:46:50.192Z,16.50
2018-12-16T03:49:17.414Z,16.50
2018-12-16T03:51:45.558Z,16.50
2018-12-16T03:54:13.714Z,16.50
2018-12-16T03:56:41.061Z,16.50
2018-12-16T03:59:12.206Z,16.50
2018-12-16T04:01:39.438Z,16.50
2018-12-16T04:04:06.663Z,16.50
2018-12-16T04:06:33.891Z,16.50
2018-12-16T04:09:01.718Z,16.50
2018-12-16T04:11:28.935Z,16.50
2018-12-16T04:13:56.152Z,16.40
2018-12-16T04:16:23.427Z,16.40
2018-12-16T04:18:50.741Z,16.40
2018-12-16T04:21:18.915Z,16.40
2018-12-16T04:23:46.153Z,16.40
2018-12-16T04:26:13.372Z,16.40
2018-12-16T04:28:40.674Z,16.40
2018-12-16T04:31:08.714Z,16.40
2018-12-16T04:33:36.739Z,16.40
2018-12-16T04:36:03.981Z,16.40
2018-12-16T04:38:31.741Z,16.40
2018-12-16T04:40:58.963Z,16.40
2018-12-16T04:43:26.175Z,16.40
2018-12-16T04:45:53.394Z,16.40
2018-12-16T04:48:20.605Z,16.40
2018-12-16T04:50:48.639Z,16.40
2018-12-16T04:53:15.857Z,16.40
2018-12-16T04:55:43.081Z,16.40
2018-12-16T04:58:10.350Z,16.40
2018-12-16T05:00:37.574Z,16.40
2018-12-16T05:03:04.790Z,16.40
2018-12-16T05:05:32.005Z,16.40
2018-12-16T05:08:00.000Z,16.40
2018-12-16T05:10:28.277Z,16.50
2018-12-16T05:12:55.486Z,16.50
2018-12-16T05:15:22.721Z,16.60
2018-12-16T05:17:50.729Z,16.60
2018-12-16T05:20:17.959Z,16.60
2018-12-16T05:22:45.187Z,16.50
2018-12-16T05:25:13.206Z,16.50
2018-12-16T05:27:40.477Z,16.50
2018-12-16T05:30:09.141Z,16.50
2018-12-16T05:32:37.149Z,16.50
2018-12-16T05:35:05.705Z,16.50
2018-12-16T05:37:33.726Z,16.50
2018-12-16T05:40:02.976Z,16.50
2018-12-16T05:42:32.210Z,16.40
2018-12-16T05:45:00.416Z,16.50
2018-12-16T05:47:28.437Z,16.40
2018-12-16T05:49:56.709Z,16.40
2018-12-16T05:52:23.919Z,16.40
2018-12-16T05:54:51.989Z,16.40
2018-12-16T05:57:20.139Z,16.40
2018-12-16T05:59:48.287Z,16.40
2018-12-16T06:02:16.402Z,16.40
2018-12-16T06:04:43.612Z,16.40
2018-12-16T06:07:10.830Z,16.30
2018-12-16T06:09:38.972Z,16.30
2018-12-16T06:12:06.190Z,16.30
2018-12-16T06:14:34.177Z,16.30
2018-12-16T06:17:01.408Z,16.30
2018-12-16T06:19:29.430Z,16.30
2018-12-16T06:21:57.618Z,16.30
2018-12-16T06:24:24.845Z,16.30
2018-12-16T06:26:52.095Z,16.30
2018-12-16T06:29:20.324Z,16.30
2018-12-16T06:31:47.592Z,16.30
2018-12-16T06:34:15.735Z,16.30
2018-12-16T06:36:43.749Z,16.30
2018-12-16T06:39:10.962Z,16.30
2018-12-16T06:41:38.168Z,16.20
2018-12-16T06:44:06.166Z,16.20
2018-12-16T06:46:34.180Z,16.20
2018-12-16T06:49:02.315Z,16.20
2018-12-16T06:51:29.535Z,16.20
2018-12-16T06:54:02.443Z,16.20
2018-12-16T06:56:27.638Z,16.20
2018-12-16T06:58:54.853Z,16.20
2018-12-16T07:01:22.862Z,16.20
2018-12-16T07:03:50.915Z,16.20
2018-12-16T07:06:18.687Z,16.10
2018-12-16T07:08:46.869Z,16.10
2018-12-16T07:11:14.089Z,16.10
2018-12-16T07:13:42.351Z,16.10
2018-12-16T07:16:09.607Z,16.20
2018-12-16T07:18:37.764Z,16.20
2018-12-16T07:21:05.910Z,16.30
2018-12-16T07:23:34.092Z,16.30
2018-12-16T07:26:02.281Z,16.40
2018-12-16T07:28:31.458Z,16.40
2018-12-16T07:30:59.485Z,16.40
2018-12-16T07:33:26.710Z,16.40
2018-12-16T07:35:53.970Z,16.30
2018-12-16T07:38:21.242Z,16.30
2018-12-16T07:40:51.391Z,16.30
2018-12-16T07:43:19.521Z,16.30
2018-12-16T07:45:47.701Z,16.30
2018-12-16T07:48:15.769Z,16.30
2018-12-16T07:50:43.951Z,16.30
2018-12-16T07:53:11.987Z,16.30
2018-12-16T07:55:40.003Z,16.30
2018-12-16T07:58:08.090Z,16.30
2018-12-16T08:00:35.446Z,16.30
2018-12-16T08:03:03.991Z,16.20
2018-12-16T08:05:32.154Z,16.20
2018-12-16T08:07:59.379Z,16.20
2018-12-16T08:10:27.578Z,16.20
2018-12-16T08:12:55.589Z,16.20
2018-12-16T08:15:23.751Z,16.20
2018-12-16T08:17:51.810Z,16.20
2018-12-16T08:20:19.899Z,16.20
2018-12-16T08:22:47.966Z,16.20
2018-12-16T08:25:16.036Z,16.20
2018-12-16T08:27:43.317Z,16.20
2018-12-16T08:30:11.440Z,16.20
2018-12-16T08:32:38.660Z,16.20
2018-12-16T08:35:05.878Z,16.20
2018-12-16T08:37:34.093Z,16.20
2018-12-16T08:40:01.318Z,16.20
2018-12-16T08:42:28.541Z,16.20
2018-12-16T08:44:55.762Z,16.10
2018-12-16T08:47:23.783Z,16.10
2018-12-16T08:49:51.001Z,16.10
2018-12-16T08:52:18.190Z,16.10
2018-12-16T08:54:45.416Z,16.10
2018-12-16T08:57:13.557Z,16.10
2018-12-16T08:59:40.773Z,16.10
2018-12-16T09:02:08.881Z,16.10
2018-12-16T09:04:36.094Z,16.20
2018-12-16T09:07:03.532Z,16.20
2018-12-16T09:09:32.594Z,16.20
2018-12-16T09:11:59.808Z,16.30
2018-12-16T09:14:27.046Z,16.30
2018-12-16T09:16:54.268Z,16.30
2018-12-16T09:19:21.493Z,16.30
2018-12-16T09:21:48.703Z,16.30
2018-12-16T09:24:15.928Z,16.30
2018-12-16T09:26:43.144Z,16.30
2018-12-16T09:29:10.355Z,16.30
2018-12-16T09:31:38.356Z,16.20
2018-12-16T09:34:06.572Z,16.20
2018-12-16T09:36:33.785Z,16.20
2018-12-16T09:39:01.625Z,16.20
2018-12-16T09:41:28.831Z,16.20
2018-12-16T09:43:56.040Z,16.20
2018-12-16T09:46:23.253Z,16.20
2018-12-16T09:48:50.472Z,16.20
2018-12-16T09:51:17.679Z,16.20
2018-12-16T09:53:45.828Z,16.30
2018-12-16T09:56:13.049Z,16.30
2018-12-16T09:58:41.076Z,16.40
2018-12-16T10:01:08.298Z,16.40
2018-12-16T10:03:35.514Z,16.30
2018-12-16T10:06:02.727Z,16.30
2018-12-16T10:08:29.937Z,16.30
2018-12-16T10:10:57.143Z,16.30
2018-12-16T10:13:24.360Z,16.30
2018-12-16T10:15:52.434Z,16.20
2018-12-16T10:18:19.669Z,16.20
2018-12-16T10:20:46.891Z,16.20
2018-12-16T10:23:14.111Z,16.10
2018-12-16T10:25:41.331Z,16.10
2018-12-16T10:28:08.537Z,16.10
2018-12-16T10:30:36.556Z,16.00
2018-12-16T10:33:04.706Z,16.00
2018-12-16T10:35:31.937Z,15.90
2018-12-16T10:37:59.144Z,15.90
2018-12-16T10:40:27.229Z,15.70
2018-12-16T10:42:54.457Z,15.80
2018-12-16T10:45:21.738Z,15.90
2018-12-16T10:47:48.956Z,15.90
2018-12-16T10:50:16.178Z,15.90
2018-12-16T10:52:43.406Z,16.00
2018-12-16T10:55:10.620Z,16.10
2018-12-16T10:57:37.829Z,16.10
2018-12-16T11:00:08.531Z,16.20
2018-12-16T11:02:35.740Z,16.20
2018-12-16T11:05:02.955Z,16.20
2018-12-16T11:07:30.830Z,16.20
2018-12-16T11:09:58.063Z,16.20
2018-12-16T11:12:25.461Z,16.20
2018-12-16T11:14:52.685Z,16.20
2018-12-16T11:17:20.838Z,16.10
2018-12-16T11:19:48.056Z,16.10
2018-12-16T11:22:15.272Z,16.10
2018-12-16T11:24:42.479Z,16.10
2018-12-16T11:27:10.689Z,16.10
2018-12-16T11:29:38.076Z,16.10
2018-12-16T11:32:05.289Z,16.10
2018-12-16T11:34:32.569Z,16.10
2018-12-16T11:36:59.816Z,16.10
2018-12-16T11:39:27.039Z,16.10
2018-12-16T11:41:54.258Z,16.10
2018-12-16T11:44:21.547Z,16.10
2018-12-16T11:46:48.755Z,16.10
2018-12-16T11:49:16.053Z,16.10
2018-12-16T11:51:43.331Z,16.00
2018-12-16T11:54:11.265Z,16.10
2018-12-16T11:56:39.383Z,16.10
2018-12-16T11:59:06.604Z,16.10
2018-12-16T12:01:34.638Z,16.10
2018-12-16T12:04:05.271Z,16.10
2018-12-16T12:06:32.560Z,16.10
2018-12-16T12:08:59.844Z,16.00
2018-12-16T12:11:27.101Z,16.00
2018-12-16T12:13:54.363Z,16.00
2018-12-16T12:16:21.612Z,16.00
2018-12-16T12:18:50.803Z,16.10
2018-12-16T12:21:18.935Z,16.10
2018-12-16T12:23:46.163Z,16.10
2018-12-16T12:26:13.437Z,16.20
2018-12-16T12:28:40.835Z,16.20
2018-12-16T12:31:08.110Z,16.20
2018-12-16T12:33:35.325Z,16.20
2018-12-16T12:36:02.596Z,16.20
2018-12-16T12:38:29.834Z,16.20
2018-12-16T12:40:58.004Z,16.20
2018-12-16T12:43:25.256Z,16.20
2018-12-16T12:45:52.484Z,16.10
2018-12-16T12:48:19.731Z,16.10
2018-12-16T12:50:46.944Z,16.10
2018-12-16T12:53:14.159Z,16.10
2018-12-16T12:55:42.225Z,16.10
2018-12-16T12:58:10.301Z,16.10
2018-12-16T13:00:37.533Z,16.10
2018-12-16T13:03:05.578Z,16.10
2018-12-16T13:05:36.951Z,16.00
2018-12-16T13:08:02.154Z,16.00
2018-12-16T13:10:30.311Z,16.00
2018-12-16T13:12:57.593Z,16.00
2018-12-16T13:15:25.751Z,15.90
2018-12-16T13:17:52.972Z,15.90
2018-12-16T13:20:20.183Z,15.90
2018-12-16T13:22:48.363Z,15.70
2018-12-16T13:25:21.578Z,15.30
2018-12-16T13:27:48.823Z,15.10
2018-12-16T13:30:16.128Z,14.90
2018-12-16T13:32:43.402Z,14.90
2018-12-16T13:35:10.714Z,14.80
2018-12-16T13:37:37.937Z,15.00
2018-12-16T13:40:05.555Z,15.30
2018-12-16T13:42:32.773Z,15.50
2018-12-16T13:45:00.029Z,15.60
2018-12-16T13:47:27.270Z,15.60
2018-12-16T13:49:54.539Z,15.70
2018-12-16T13:52:21.796Z,15.70
2018-12-16T13:54:49.079Z,15.70
2018-12-16T13:57:16.291Z,15.70
2018-12-16T13:59:43.584Z,15.80
2018-12-16T14:02:10.811Z,15.80
2018-12-16T14:04:39.044Z,15.80
2018-12-16T14:07:06.293Z,15.80
2018-12-16T14:09:33.614Z,15.80
2018-12-16T14:12:01.272Z,15.80
2018-12-16T14:14:28.527Z,15.90
2018-12-16T14:16:56.527Z,15.90
2018-12-16T14:19:23.749Z,15.90
2018-12-16T14:21:51.759Z,16.00
2018-12-16T14:24:19.903Z,16.00
2018-12-16T14:26:47.169Z,16.00
2018-12-16T14:29:15.316Z,16.00
2018-12-16T14:31:43.508Z,16.00
2018-12-16T14:34:10.734Z,15.90
2018-12-16T14:36:38.028Z,16.00
2018-12-16T14:39:05.721Z,16.00
2018-12-16T14:41:32.939Z,16.00
2018-12-16T14:44:00.630Z,16.00
2018-12-16T14:46:27.929Z,16.00
2018-12-16T14:48:55.143Z,16.00
2018-12-16T14:51:22.405Z,16.00
2018-12-16T14:53:50.682Z,16.00
2018-12-16T14:56:17.908Z,16.00
2018-12-16T14:58:45.132Z,16.00
2018-12-16T15:01:13.291Z,16.00
2018-12-16T15:03:40.523Z,16.00
2018-12-16T15:06:07.771Z,16.10
2018-12-16T15:08:34.982Z,16.00
2018-12-16T15:11:03.146Z,16.00
2018-12-16T15:13:31.961Z,16.00
2018-12-16T15:16:00.942Z,16.00
2018-12-16T15:18:29.088Z,16.00
2018-12-16T15:20:57.317Z,16.00
2018-12-16T15:23:24.553Z,16.00
2018-12-16T15:25:51.743Z,16.00
2018-12-16T15:28:18.959Z,16.00
2018-12-16T15:30:46.206Z,16.00
2018-12-16T15:33:13.432Z,16.00
2018-12-16T15:35:40.710Z,16.00
2018-12-16T15:38:07.972Z,16.00
2018-12-16T15:40:35.198Z,16.00
2018-12-16T15:43:02.408Z,16.00
2018-12-16T15:45:29.629Z,16.00
2018-12-16T15:47:56.838Z,16.00
2018-12-16T15:50:24.041Z,16.00
2018-12-16T15:52:52.103Z,16.00
2018-12-16T15:55:19.331Z,16.00
2018-12-16T15:57:46.541Z,16.00
2018-12-16T16:00:13.751Z,16.00
2018-12-16T16:02:41.001Z,16.00
2018-12-16T16:05:08.204Z,16.00
2018-12-16T16:07:36.268Z,16.00
2018-12-16T16:10:05.229Z,16.00
2018-12-16T16:12:32.494Z,16.00
2018-12-16T16:14:59.764Z,16.10
2018-12-16T16:17:26.973Z,16.10
2018-12-16T16:19:54.196Z,16.10
2018-12-16T16:22:22.205Z,16.10
2018-12-16T16:24:49.424Z,16.10
2018-12-16T16:27:16.907Z,16.10
2018-12-16T16:29:44.167Z,16.10
2018-12-16T16:32:11.387Z,16.10
2018-12-16T16:34:38.638Z,16.10
2018-12-16T16:37:06.671Z,16.10
2018-12-16T16:39:33.891Z,16.10
2018-12-16T16:42:01.811Z,16.00
2018-12-16T16:44:29.081Z,16.00
2018-12-16T16:46:56.350Z,16.00
2018-12-16T16:49:23.587Z,16.00
2018-12-16T16:51:51.696Z,16.00
2018-12-16T16:54:18.939Z,16.00
2018-12-16T16:56:46.165Z,16.00
2018-12-16T16:59:13.420Z,16.00
2018-12-16T17:01:40.639Z,16.10
2018-12-16T17:04:07.861Z,16.10
2018-12-16T17:06:35.240Z,16.00
2018-12-16T17:09:03.410Z,16.00
2018-12-16T17:11:32.125Z,16.00
2018-12-16T17:13:59.651Z,16.00
2018-12-16T17:16:26.930Z,16.00
2018-12-16T17:18:54.509Z,16.00
2018-12-16T17:21:21.746Z,16.00
2018-12-16T17:23:49.018Z,16.10
2018-12-16T17:26:17.193Z,16.20
2018-12-16T17:28:44.462Z,16.20
2018-12-16T17:31:11.803Z,16.20
2018-12-16T17:33:39.335Z,16.20
2018-12-16T17:36:07.527Z,16.30
2018-12-16T17:38:34.851Z,16.30
2018-12-16T17:41:02.654Z,16.30
2018-12-16T17:43:31.620Z,16.30
2018-12-16T17:45:59.638Z,16.20
2018-12-16T17:48:26.858Z,16.20
2018-12-16T17:50:54.089Z,16.20
2018-12-16T17:53:21.302Z,16.20
2018-12-16T17:55:51.518Z,16.20
2018-12-16T17:58:18.782Z,16.20
2018-12-16T18:00:46.110Z,16.20
2018-12-16T18:03:13.327Z,16.10
2018-12-16T18:05:46.256Z,16.20
2018-12-16T18:08:13.494Z,16.10
2018-12-16T18:10:40.756Z,16.10
2018-12-16T18:13:07.977Z,16.10
2018-12-16T18:15:35.720Z,16.10
2018-12-16T18:18:02.971Z,16.10
2018-12-16T18:20:30.542Z,16.10
2018-12-16T18:22:57.791Z,16.10
2018-12-16T18:25:25.007Z,16.10
2018-12-16T18:27:52.225Z,16.10
2018-12-16T18:30:19.438Z,16.10
2018-12-16T18:32:46.654Z,16.10
2018-12-16T18:35:13.925Z,16.10
2018-12-16T18:37:41.223Z,16.10
2018-12-16T18:40:08.459Z,16.10
2018-12-16T18:42:35.690Z,16.10
2018-12-16T18:45:02.912Z,16.10
2018-12-16T18:47:30.611Z,16.10
2018-12-16T18:49:58.216Z,16.10
2018-12-16T18:52:25.445Z,16.10
2018-12-16T18:54:52.892Z,16.10
2018-12-16T18:57:21.071Z,16.00
2018-12-16T18:59:49.325Z,16.00
2018-12-16T19:02:16.543Z,16.00
2018-12-16T19:04:43.816Z,16.00
2018-12-16T19:07:11.041Z,16.00
2018-12-16T19:09:38.302Z,16.00
2018-12-16T19:12:05.514Z,16.00
2018-12-16T19:14:33.009Z,16.10
2018-12-16T19:17:00.598Z,16.10
2018-12-16T19:19:28.023Z,16.20
2018-12-16T19:21:55.242Z,16.20
2018-12-16T19:24:22.457Z,16.20
2018-12-16T19:26:49.680Z,16.20
2018-12-16T19:29:17.843Z,16.10
2018-12-16T19:31:45.194Z,16.10
2018-12-16T19:34:12.864Z,16.10
2018-12-16T19:36:40.129Z,16.10
2018-12-16T19:39:07.364Z,16.10
2018-12-16T19:41:34.593Z,16.10
2018-12-16T19:44:03.420Z,16.10
2018-12-16T19:46:32.397Z,16.10
2018-12-16T19:48:59.630Z,16.10
2018-12-16T19:51:26.978Z,16.10
2018-12-16T19:53:54.226Z,16.10
2018-12-16T19:56:21.538Z,16.10
2018-12-16T19:58:48.841Z,16.00
2018-12-16T20:01:16.075Z,16.00
2018-12-16T20:03:45.284Z,16.00
2018-12-16T20:06:18.261Z,16.00
2018-12-16T20:08:46.395Z,16.00
2018-12-16T20:11:14.573Z,16.00
2018-12-16T20:13:41.847Z,16.00
2018-12-16T20:16:09.991Z,16.00
2018-12-16T20:18:37.399Z,16.00
2018-12-16T20:21:05.502Z,16.00
2018-12-16T20:23:32.733Z,16.00
2018-12-16T20:26:00.995Z,16.00
2018-12-16T20:28:29.758Z,16.00
2018-12-16T20:30:56.990Z,15.90
2018-12-16T20:33:24.279Z,16.00
2018-12-16T20:35:52.043Z,16.00
2018-12-16T20:38:20.183Z,16.00
2018-12-16T20:40:47.600Z,16.00
2018-12-16T20:43:14.957Z,15.90
2018-12-16T20:45:43.036Z,16.00
2018-12-16T20:48:10.275Z,16.00
2018-12-16T20:50:38.832Z,16.00
2018-12-16T20:53:07.084Z,16.00
2018-12-16T20:55:34.354Z,16.00
2018-12-16T20:58:02.613Z,16.00
2018-12-16T21:00:29.818Z,16.00
2018-12-16T21:02:58.161Z,16.00
2018-12-16T21:05:25.438Z,15.90
2018-12-16T21:07:52.675Z,15.90
2018-12-16T21:10:19.952Z,15.90
2018-12-16T21:12:53.754Z,16.00
2018-12-16T21:15:27.645Z,16.00
2018-12-16T21:18:01.164Z,16.10
2018-12-16T21:20:29.223Z,16.10
2018-12-16T21:22:56.440Z,16.10
2018-12-16T21:25:23.726Z,16.10
2018-12-16T21:27:51.460Z,16.10
2018-12-16T21:30:18.676Z,16.10
2018-12-16T21:32:46.840Z,16.10
2018-12-16T21:35:14.976Z,16.10
2018-12-16T21:37:42.185Z,16.10
2018-12-16T21:40:09.408Z,16.10
2018-12-16T21:42:36.649Z,16.00
2018-12-16T21:45:04.250Z,16.00
2018-12-16T21:47:32.417Z,16.00
2018-12-16T21:49:59.634Z,16.00
2018-12-16T21:52:26.913Z,16.00
2018-12-16T21:54:54.137Z,16.00
2018-12-16T21:57:21.418Z,16.00
2018-12-16T21:59:49.855Z,16.00
2018-12-16T22:02:17.071Z,16.00
2018-12-16T22:04:45.111Z,16.00
2018-12-16T22:07:13.267Z,16.00
2018-12-16T22:09:40.483Z,16.00
2018-12-16T22:12:07.709Z,16.00
2018-12-16T22:14:35.841Z,16.00
2018-12-16T22:17:03.992Z,16.00
2018-12-16T22:19:32.094Z,16.00
2018-12-16T22:21:59.311Z,16.00
2018-12-16T22:24:26.526Z,16.00
2018-12-16T22:26:54.696Z,16.00
2018-12-16T22:29:21.955Z,16.00
2018-12-16T22:31:50.186Z,16.00
2018-12-16T22:34:17.459Z,16.00
2018-12-16T22:36:45.477Z,16.00
2018-12-16T22:39:12.694Z,16.00
2018-12-16T22:41:39.913Z,16.00
2018-12-16T22:44:08.137Z,16.00
2018-12-16T22:46:36.255Z,16.00
2018-12-16T22:49:04.270Z,16.10
2018-12-16T22:51:32.063Z,16.10
2018-12-16T22:53:59.286Z,16.20
2018-12-16T22:56:26.505Z,16.20
2018-12-16T22:58:54.725Z,16.20
2018-12-16T23:01:23.010Z,16.20
2018-12-16T23:03:52.017Z,16.20
2018-12-16T23:06:20.165Z,16.20
2018-12-16T23:08:47.390Z,16.20
2018-12-16T23:11:15.563Z,16.10
2018-12-16T23:13:42.781Z,16.10
2018-12-16T23:16:10.011Z,16.10
2018-12-16T23:18:38.277Z,16.10
2018-12-16T23:21:05.505Z,16.10
2018-12-16T23:23:32.708Z,16.10
2018-12-16T23:25:59.936Z,16.10
2018-12-16T23:28:28.107Z,16.10
2018-12-16T23:30:55.327Z,16.10
2018-12-16T23:33:23.390Z,16.10
2018-12-16T23:35:51.435Z,16.10
2018-12-16T23:38:18.650Z,16.10
2018-12-16T23:40:45.869Z,16.10
2018-12-16T23:43:14.008Z,16.10
2018-12-16T23:45:42.157Z,16.10
2018-12-16T23:48:09.383Z,16.10
2018-12-16T23:50:36.625Z,16.10
2018-12-16T23:53:03.827Z,16.10
2018-12-16T23:55:31.988Z,16.10
2018-12-16T23:58:01.207Z,16.10
